Terminal Aerodrome Forecast
Issued by NWS

Home | Current Version | Previous Version | Text Only | Print | Product List | Glossary On
Versions: 1 2 3 4 5 6 7 8 9 10 11 12 13 14 15 16
000
FTUS46 KSEW 031100
TAFOLM
TAF
KOLM 031125Z 0312/0412 21005KT P6SM SCT025 BKN060
      TEMPO 0312/0315 BKN025
     FM031900 23005KT P6SM SCT030 BKN060
     FM032200 31006KT P6SM SCT040 SCT060 BKN120
     FM040600 VRB03KT P6SM BKN030=

USA.gov is the U.S. government's official web portal to all federal, state and local government web resources and services.